sensor_id;sensor_type;location;lat;lon;timestamp;temperature;humidity
5415;DHT22;2730;51.512;7.504;2023-06-14T00:01:57;17.50;1.00
5415;DHT22;2730;51.512;7.504;2023-06-14T00:04:24;17.50;1.00
5415;DHT22;2730;51.512;7.504;2023-06-14T00:06:51;17.40;1.00
5415;DHT22;2730;51.512;7.504;2023-06-14T00:09:18;17.30;1.00
5415;DHT22;2730;51.512;7.504;2023-06-14T00:11:45;17.30;1.00
5415;DHT22;2730;51.512;7.504;2023-06-14T00:14:13;17.30;1.00
5415;DHT22;2730;51.512;7.504;2023-06-14T00:16:40;17.30;1.00
5415;DHT22;2730;51.512;7.504;2023-06-14T00:19:08;17.30;1.00
5415;DHT22;2730;51.512;7.504;2023-06-14T00:21:35;17.30;1.00
5415;DHT22;2730;51.512;7.504;2023-06-14T00:24:04;17.10;1.00
5415;DHT22;2730;51.512;7.504;2023-06-14T00:26:31;17.10;1.00
5415;DHT22;2730;51.512;7.504;2023-06-14T00:28:57;17.10;5.30
5415;DHT22;2730;51.512;7.504;2023-06-14T00:31:26;17.00;1.00
5415;DHT22;2730;51.512;7.504;2023-06-14T00:33:53;17.10;1.00
5415;DHT22;2730;51.512;7.504;2023-06-14T00:36:19;17.00;5.00
5415;DHT22;2730;51.512;7.504;2023-06-14T00:38:46;17.00;9.40
5415;DHT22;2730;51.512;7.504;2023-06-14T00:41:13;16.90;16.20
5415;DHT22;2730;51.512;7.504;2023-06-14T00:43:40;16.80;26.50
5415;DHT22;2730;51.512;7.504;2023-06-14T00:46:06;16.80;38.90
5415;DHT22;2730;51.512;7.504;2023-06-14T00:48:35;16.80;40.20
5415;DHT22;2730;51.512;7.504;2023-06-14T00:51:03;16.80;50.10
5415;DHT22;2730;51.512;7.504;2023-06-14T00:53:30;16.70;58.10
5415;DHT22;2730;51.512;7.504;2023-06-14T00:55:59;16.70;73.80
5415;DHT22;2730;51.512;7.504;2023-06-14T00:58:26;16.70;72.00
5415;DHT22;2730;51.512;7.504;2023-06-14T01:00:54;16.60;87.20
5415;DHT22;2730;51.512;7.504;2023-06-14T01:03:21;16.60;93.30
5415;DHT22;2730;51.512;7.504;2023-06-14T01:05:52;16.50;99.90
5415;DHT22;2730;51.512;7.504;2023-06-14T01:08:28;16.50;99.90
5415;DHT22;2730;51.512;7.504;2023-06-14T01:11:02;16.50;99.90
5415;DHT22;2730;51.512;7.504;2023-06-14T01:13:34;16.40;99.90
5415;DHT22;2730;51.512;7.504;2023-06-14T01:16:01;16.30;99.90
5415;DHT22;2730;51.512;7.504;2023-06-14T01:18:29;16.30;99.90
5415;DHT22;2730;51.512;7.504;2023-06-14T01:20:57;16.20;99.90
5415;DHT22;2730;51.512;7.504;2023-06-14T01:23:25;16.30;99.90
5415;DHT22;2730;51.512;7.504;2023-06-14T01:25:58;16.20;99.90
5415;DHT22;2730;51.512;7.504;2023-06-14T01:28:29;16.20;99.90
5415;DHT22;2730;51.512;7.504;2023-06-14T01:31:00;16.20;99.90
5415;DHT22;2730;51.512;7.504;2023-06-14T01:33:30;16.10;99.90
5415;DHT22;2730;51.512;7.504;2023-06-14T01:35:58;16.00;99.90
5415;DHT22;2730;51.512;7.504;2023-06-14T01:38:27;16.00;99.90
5415;DHT22;2730;51.512;7.504;2023-06-14T01:40:56;16.00;99.90
5415;DHT22;2730;51.512;7.504;2023-06-14T01:43:25;15.90;99.90
5415;DHT22;2730;51.512;7.504;2023-06-14T01:45:53;15.80;99.90
5415;DHT22;2730;51.512;7.504;2023-06-14T01:48:22;15.80;99.90
5415;DHT22;2730;51.512;7.504;2023-06-14T01:50:49;15.80;99.90
5415;DHT22;2730;51.512;7.504;2023-06-14T01:53:16;15.70;99.90
5415;DHT22;2730;51.512;7.504;2023-06-14T01:55:44;15.70;99.90
5415;DHT22;2730;51.512;7.504;2023-06-14T01:58:13;15.70;99.90
5415;DHT22;2730;51.512;7.504;2023-06-14T02:00:41;15.60;99.90
5415;DHT22;2730;51.512;7.504;2023-06-14T02:03:10;15.70;99.90
5415;DHT22;2730;51.512;7.504;2023-06-14T02:05:38;15.60;99.90
5415;DHT22;2730;51.512;7.504;2023-06-14T02:08:05;15.60;99.90
5415;DHT22;2730;51.512;7.504;2023-06-14T02:10:32;15.70;99.90
5415;DHT22;2730;51.512;7.504;2023-06-14T02:13:00;15.60;99.90
5415;DHT22;2730;51.512;7.504;2023-06-14T02:15:27;15.50;99.90
5415;DHT22;2730;51.512;7.504;2023-06-14T02:17:59;15.50;99.90
5415;DHT22;2730;51.512;7.504;2023-06-14T02:20:27;15.50;99.90
5415;DHT22;2730;51.512;7.504;2023-06-14T02:22:53;15.40;99.90
5415;DHT22;2730;51.512;7.504;2023-06-14T02:25:20;15.40;99.90
5415;DHT22;2730;51.512;7.504;2023-06-14T02:27:47;15.30;99.90
5415;DHT22;2730;51.512;7.504;2023-06-14T02:30:15;15.30;99.90
5415;DHT22;2730;51.512;7.504;2023-06-14T02:32:42;15.30;99.90
5415;DHT22;2730;51.512;7.504;2023-06-14T02:35:09;15.30;99.90
5415;DHT22;2730;51.512;7.504;2023-06-14T02:37:36;15.20;99.90
5415;DHT22;2730;51.512;7.504;2023-06-14T02:40:04;15.20;99.90
5415;DHT22;2730;51.512;7.504;2023-06-14T02:42:31;15.10;99.90
5415;DHT22;2730;51.512;7.504;2023-06-14T02:44:58;15.20;99.90
5415;DHT22;2730;51.512;7.504;2023-06-14T02:47:27;15.10;99.90
5415;DHT22;2730;51.512;7.504;2023-06-14T02:49:54;15.10;99.90
5415;DHT22;2730;51.512;7.504;2023-06-14T02:52:20;15.10;99.90
5415;DHT22;2730;51.512;7.504;2023-06-14T02:54:47;15.10;99.90
5415;DHT22;2730;51.512;7.504;2023-06-14T02:57:14;15.00;99.90
5415;DHT22;2730;51.512;7.504;2023-06-14T02:59:41;15.00;99.90
5415;DHT22;2730;51.512;7.504;2023-06-14T03:02:08;14.90;99.90
5415;DHT22;2730;51.512;7.504;2023-06-14T03:04:36;15.00;99.90
5415;DHT22;2730;51.512;7.504;2023-06-14T03:07:04;14.90;99.90
5415;DHT22;2730;51.512;7.504;2023-06-14T03:09:35;14.90;99.90
5415;DHT22;2730;51.512;7.504;2023-06-14T03:12:02;14.90;99.90
5415;DHT22;2730;51.512;7.504;2023-06-14T03:14:29;14.90;99.90
5415;DHT22;2730;51.512;7.504;2023-06-14T03:16:56;14.90;99.90
5415;DHT22;2730;51.512;7.504;2023-06-14T03:19:24;14.90;99.90
5415;DHT22;2730;51.512;7.504;2023-06-14T03:21:53;14.90;99.90
5415;DHT22;2730;51.512;7.504;2023-06-14T03:24:22;14.90;99.90
5415;DHT22;2730;51.512;7.504;2023-06-14T03:26:49;14.90;99.90
5415;DHT22;2730;51.512;7.504;2023-06-14T03:29:16;14.90;99.90
5415;DHT22;2730;51.512;7.504;2023-06-14T03:31:56;14.80;99.90
5415;DHT22;2730;51.512;7.504;2023-06-14T03:34:23;14.80;99.90
5415;DHT22;2730;51.512;7.504;2023-06-14T03:36:50;14.80;99.90
5415;DHT22;2730;51.512;7.504;2023-06-14T03:39:18;14.70;99.90
5415;DHT22;2730;51.512;7.504;2023-06-14T03:41:45;14.80;99.90
5415;DHT22;2730;51.512;7.504;2023-06-14T03:44:15;14.70;99.90
5415;DHT22;2730;51.512;7.504;2023-06-14T03:46:42;14.80;99.90
5415;DHT22;2730;51.512;7.504;2023-06-14T03:49:09;14.80;99.90
5415;DHT22;2730;51.512;7.504;2023-06-14T03:51:37;14.70;99.90
5415;DHT22;2730;51.512;7.504;2023-06-14T03:54:05;14.70;99.90
5415;DHT22;2730;51.512;7.504;2023-06-14T03:56:33;14.70;99.90
5415;DHT22;2730;51.512;7.504;2023-06-14T03:59:00;14.70;99.90
5415;DHT22;2730;51.512;7.504;2023-06-14T04:01:27;14.70;99.90
5415;DHT22;2730;51.512;7.504;2023-06-14T04:03:56;14.70;99.90
5415;DHT22;2730;51.512;7.504;2023-06-14T04:06:23;14.70;99.90
5415;DHT22;2730;51.512;7.504;2023-06-14T04:08:58;14.80;99.90
5415;DHT22;2730;51.512;7.504;2023-06-14T04:11:29;14.80;99.90
5415;DHT22;2730;51.512;7.504;2023-06-14T04:13:57;14.80;99.90
5415;DHT22;2730;51.512;7.504;2023-06-14T04:16:24;14.80;99.90
5415;DHT22;2730;51.512;7.504;2023-06-14T04:18:51;14.80;99.90
5415;DHT22;2730;51.512;7.504;2023-06-14T04:21:18;14.80;99.90
5415;DHT22;2730;51.512;7.504;2023-06-14T04:23:45;14.80;99.90
5415;DHT22;2730;51.512;7.504;2023-06-14T04:26:12;14.90;99.90
5415;DHT22;2730;51.512;7.504;2023-06-14T04:28:40;14.90;99.90
5415;DHT22;2730;51.512;7.504;2023-06-14T04:31:08;14.90;99.90
5415;DHT22;2730;51.512;7.504;2023-06-14T04:33:35;14.90;99.90
5415;DHT22;2730;51.512;7.504;2023-06-14T04:36:08;14.90;99.90
5415;DHT22;2730;51.512;7.504;2023-06-14T04:38:35;14.90;99.90
5415;DHT22;2730;51.512;7.504;2023-06-14T04:41:02;15.00;99.90
5415;DHT22;2730;51.512;7.504;2023-06-14T04:43:29;15.00;99.90
5415;DHT22;2730;51.512;7.504;2023-06-14T04:45:57;15.00;99.90
5415;DHT22;2730;51.512;7.504;2023-06-14T04:48:25;15.10;99.90
5415;DHT22;2730;51.512;7.504;2023-06-14T04:50:52;15.20;99.90
5415;DHT22;2730;51.512;7.504;2023-06-14T04:53:20;15.20;99.90
5415;DHT22;2730;51.512;7.504;2023-06-14T04:55:48;15.20;99.90
5415;DHT22;2730;51.512;7.504;2023-06-14T04:58:16;15.30;99.90
5415;DHT22;2730;51.512;7.504;2023-06-14T05:00:42;15.30;99.90
5415;DHT22;2730;51.512;7.504;2023-06-14T05:03:09;15.30;99.90
5415;DHT22;2730;51.512;7.504;2023-06-14T05:05:40;15.40;99.90
5415;DHT22;2730;51.512;7.504;2023-06-14T05:08:07;15.50;99.90
5415;DHT22;2730;51.512;7.504;2023-06-14T05:10:34;15.40;99.90
5415;DHT22;2730;51.512;7.504;2023-06-14T05:13:01;15.50;99.90
5415;DHT22;2730;51.512;7.504;2023-06-14T05:15:28;15.60;99.90
5415;DHT22;2730;51.512;7.504;2023-06-14T05:17:55;15.70;99.90
5415;DHT22;2730;51.512;7.504;2023-06-14T05:20:22;15.80;99.90
5415;DHT22;2730;51.512;7.504;2023-06-14T05:22:52;15.90;99.90
5415;DHT22;2730;51.512;7.504;2023-06-14T05:25:19;16.10;99.90
5415;DHT22;2730;51.512;7.504;2023-06-14T05:27:46;16.50;99.90
5415;DHT22;2730;51.512;7.504;2023-06-14T05:30:14;17.10;99.90
5415;DHT22;2730;51.512;7.504;2023-06-14T05:32:41;17.30;99.90
5415;DHT22;2730;51.512;7.504;2023-06-14T05:35:08;17.60;99.90
5415;DHT22;2730;51.512;7.504;2023-06-14T05:37:36;18.10;99.90
5415;DHT22;2730;51.512;7.504;2023-06-14T05:40:05;19.00;41.10
5415;DHT22;2730;51.512;7.504;2023-06-14T05:42:34;20.00;1.00
5415;DHT22;2730;51.512;7.504;2023-06-14T05:45:01;21.10;1.00
5415;DHT22;2730;51.512;7.504;2023-06-14T05:47:27;22.30;1.00
5415;DHT22;2730;51.512;7.504;2023-06-14T05:49:54;23.00;1.00
5415;DHT22;2730;51.512;7.504;2023-06-14T05:52:21;23.50;1.00
5415;DHT22;2730;51.512;7.504;2023-06-14T05:54:48;23.00;1.00
5415;DHT22;2730;51.512;7.504;2023-06-14T05:57:16;22.70;1.00
5415;DHT22;2730;51.512;7.504;2023-06-14T05:59:43;21.90;1.00
5415;DHT22;2730;51.512;7.504;2023-06-14T06:02:10;21.30;1.00
5415;DHT22;2730;51.512;7.504;2023-06-14T06:04:37;20.40;1.00
5415;DHT22;2730;51.512;7.504;2023-06-14T06:07:04;20.10;1.00
5415;DHT22;2730;51.512;7.504;2023-06-14T06:09:31;20.90;1.00
5415;DHT22;2730;51.512;7.504;2023-06-14T06:11:58;21.90;1.00
5415;DHT22;2730;51.512;7.504;2023-06-14T06:14:26;23.20;1.00
5415;DHT22;2730;51.512;7.504;2023-06-14T06:16:54;24.30;1.00
5415;DHT22;2730;51.512;7.504;2023-06-14T06:19:20;25.00;1.00
5415;DHT22;2730;51.512;7.504;2023-06-14T06:21:47;25.80;1.00
5415;DHT22;2730;51.512;7.504;2023-06-14T06:24:14;25.80;1.00
5415;DHT22;2730;51.512;7.504;2023-06-14T06:26:41;26.40;1.00
5415;DHT22;2730;51.512;7.504;2023-06-14T06:29:08;26.50;1.00
5415;DHT22;2730;51.512;7.504;2023-06-14T06:31:37;26.70;1.00
5415;DHT22;2730;51.512;7.504;2023-06-14T06:34:04;27.20;1.00
5415;DHT22;2730;51.512;7.504;2023-06-14T06:36:30;26.90;1.00
5415;DHT22;2730;51.512;7.504;2023-06-14T06:38:57;26.20;1.00
5415;DHT22;2730;51.512;7.504;2023-06-14T06:41:24;26.30;1.00
5415;DHT22;2730;51.512;7.504;2023-06-14T06:43:51;27.00;1.00
5415;DHT22;2730;51.512;7.504;2023-06-14T06:46:18;27.00;1.00
5415;DHT22;2730;51.512;7.504;2023-06-14T06:48:46;27.50;1.00
5415;DHT22;2730;51.512;7.504;2023-06-14T06:51:13;28.20;1.00
5415;DHT22;2730;51.512;7.504;2023-06-14T06:53:42;27.60;1.00
5415;DHT22;2730;51.512;7.504;2023-06-14T06:56:09;27.90;1.00
5415;DHT22;2730;51.512;7.504;2023-06-14T06:58:36;28.30;1.00
5415;DHT22;2730;51.512;7.504;2023-06-14T07:01:02;27.60;1.00
5415;DHT22;2730;51.512;7.504;2023-06-14T07:03:29;28.20;1.00
5415;DHT22;2730;51.512;7.504;2023-06-14T07:05:58;27.70;1.00
5415;DHT22;2730;51.512;7.504;2023-06-14T07:08:25;27.50;1.00
5415;DHT22;2730;51.512;7.504;2023-06-14T07:10:52;27.00;1.00
5415;DHT22;2730;51.512;7.504;2023-06-14T07:13:19;27.60;1.00
5415;DHT22;2730;51.512;7.504;2023-06-14T07:15:46;28.10;1.00
5415;DHT22;2730;51.512;7.504;2023-06-14T07:18:13;27.60;1.00
5415;DHT22;2730;51.512;7.504;2023-06-14T07:20:40;27.50;1.00
5415;DHT22;2730;51.512;7.504;2023-06-14T07:23:09;28.10;1.00
5415;DHT22;2730;51.512;7.504;2023-06-14T07:25:36;27.60;1.00
5415;DHT22;2730;51.512;7.504;2023-06-14T07:28:03;27.40;1.00
5415;DHT22;2730;51.512;7.504;2023-06-14T07:30:30;27.00;1.00
5415;DHT22;2730;51.512;7.504;2023-06-14T07:32:57;26.60;1.00
5415;DHT22;2730;51.512;7.504;2023-06-14T07:35:24;26.20;1.00
5415;DHT22;2730;51.512;7.504;2023-06-14T07:37:51;26.60;1.00
5415;DHT22;2730;51.512;7.504;2023-06-14T07:40:19;26.70;1.00
5415;DHT22;2730;51.512;7.504;2023-06-14T07:42:46;26.60;1.00
5415;DHT22;2730;51.512;7.504;2023-06-14T07:45:15;26.70;1.00
5415;DHT22;2730;51.512;7.504;2023-06-14T07:47:42;26.20;1.00
5415;DHT22;2730;51.512;7.504;2023-06-14T07:50:09;26.60;1.00
5415;DHT22;2730;51.512;7.504;2023-06-14T07:52:37;27.20;1.00
5415;DHT22;2730;51.512;7.504;2023-06-14T07:55:04;27.80;1.00
5415;DHT22;2730;51.512;7.504;2023-06-14T07:57:33;27.70;1.00
5415;DHT22;2730;51.512;7.504;2023-06-14T08:00:00;28.10;1.00
5415;DHT22;2730;51.512;7.504;2023-06-14T08:02:27;28.50;1.00
5415;DHT22;2730;51.512;7.504;2023-06-14T08:04:54;28.30;1.00
5415;DHT22;2730;51.512;7.504;2023-06-14T08:07:21;27.70;1.00
5415;DHT22;2730;51.512;7.504;2023-06-14T08:09:48;28.20;1.00
5415;DHT22;2730;51.512;7.504;2023-06-14T08:12:15;27.90;1.00
5415;DHT22;2730;51.512;7.504;2023-06-14T08:14:43;28.30;1.00
5415;DHT22;2730;51.512;7.504;2023-06-14T08:17:10;28.40;1.00
5415;DHT22;2730;51.512;7.504;2023-06-14T08:19:37;27.80;1.00
5415;DHT22;2730;51.512;7.504;2023-06-14T08:22:04;27.50;1.00
5415;DHT22;2730;51.512;7.504;2023-06-14T08:24:31;27.50;1.00
5415;DHT22;2730;51.512;7.504;2023-06-14T08:26:58;27.60;1.00
5415;DHT22;2730;51.512;7.504;2023-06-14T08:29:26;27.90;1.00
5415;DHT22;2730;51.512;7.504;2023-06-14T08:31:56;27.50;1.00
5415;DHT22;2730;51.512;7.504;2023-06-14T08:34:23;27.50;1.00
5415;DHT22;2730;51.512;7.504;2023-06-14T08:36:50;27.70;1.00
5415;DHT22;2730;51.512;7.504;2023-06-14T08:39:17;27.60;1.00
5415;DHT22;2730;51.512;7.504;2023-06-14T08:41:46;27.50;1.00
5415;DHT22;2730;51.512;7.504;2023-06-14T08:44:13;27.40;1.00
5415;DHT22;2730;51.512;7.504;2023-06-14T08:46:42;27.00;1.00
5415;DHT22;2730;51.512;7.504;2023-06-14T08:49:11;27.30;1.00
5415;DHT22;2730;51.512;7.504;2023-06-14T08:51:39;27.30;1.00
5415;DHT22;2730;51.512;7.504;2023-06-14T08:54:07;27.40;1.00
5415;DHT22;2730;51.512;7.504;2023-06-14T08:56:34;27.50;1.00
5415;DHT22;2730;51.512;7.504;2023-06-14T08:59:04;28.00;1.00
5415;DHT22;2730;51.512;7.504;2023-06-14T09:01:34;27.60;1.00
5415;DHT22;2730;51.512;7.504;2023-06-14T09:04:01;26.90;1.00
5415;DHT22;2730;51.512;7.504;2023-06-14T09:06:32;27.00;1.00
5415;DHT22;2730;51.512;7.504;2023-06-14T09:08:59;26.80;1.00
5415;DHT22;2730;51.512;7.504;2023-06-14T09:11:26;27.20;1.00
5415;DHT22;2730;51.512;7.504;2023-06-14T09:13:53;27.10;1.00
5415;DHT22;2730;51.512;7.504;2023-06-14T09:16:20;27.70;1.00
5415;DHT22;2730;51.512;7.504;2023-06-14T09:18:47;27.90;1.00
5415;DHT22;2730;51.512;7.504;2023-06-14T09:21:15;28.00;1.00
5415;DHT22;2730;51.512;7.504;2023-06-14T09:23:45;28.50;1.00
5415;DHT22;2730;51.512;7.504;2023-06-14T09:26:13;27.90;1.00
5415;DHT22;2730;51.512;7.504;2023-06-14T09:28:44;27.90;1.00
5415;DHT22;2730;51.512;7.504;2023-06-14T09:31:11;28.50;1.00
5415;DHT22;2730;51.512;7.504;2023-06-14T09:33:38;28.30;1.00
5415;DHT22;2730;51.512;7.504;2023-06-14T09:36:10;28.00;1.00
5415;DHT22;2730;51.512;7.504;2023-06-14T09:38:38;27.60;1.00
5415;DHT22;2730;51.512;7.504;2023-06-14T09:41:07;28.20;1.00
5415;DHT22;2730;51.512;7.504;2023-06-14T09:43:34;27.40;1.00
5415;DHT22;2730;51.512;7.504;2023-06-14T09:46:22;27.80;1.00
5415;DHT22;2730;51.512;7.504;2023-06-14T09:48:48;27.80;1.00
5415;DHT22;2730;51.512;7.504;2023-06-14T09:51:15;28.00;1.00
5415;DHT22;2730;51.512;7.504;2023-06-14T09:53:44;28.10;1.00
5415;DHT22;2730;51.512;7.504;2023-06-14T09:56:15;27.80;1.00
5415;DHT22;2730;51.512;7.504;2023-06-14T09:58:43;27.90;1.00
5415;DHT22;2730;51.512;7.504;2023-06-14T10:01:10;27.50;1.00
5415;DHT22;2730;51.512;7.504;2023-06-14T10:03:39;26.80;1.00
5415;DHT22;2730;51.512;7.504;2023-06-14T10:06:08;26.20;1.00
5415;DHT22;2730;51.512;7.504;2023-06-14T10:08:36;27.00;1.00
5415;DHT22;2730;51.512;7.504;2023-06-14T10:11:04;27.60;1.00
5415;DHT22;2730;51.512;7.504;2023-06-14T10:13:33;27.30;1.00
5415;DHT22;2730;51.512;7.504;2023-06-14T10:16:07;27.30;1.00
5415;DHT22;2730;51.512;7.504;2023-06-14T10:18:42;27.80;1.00
5415;DHT22;2730;51.512;7.504;2023-06-14T10:21:18;28.10;1.00
5415;DHT22;2730;51.512;7.504;2023-06-14T10:23:48;28.40;1.00
5415;DHT22;2730;51.512;7.504;2023-06-14T10:26:20;28.40;1.00
5415;DHT22;2730;51.512;7.504;2023-06-14T10:28:59;28.00;1.00
5415;DHT22;2730;51.512;7.504;2023-06-14T10:31:40;27.70;1.00
5415;DHT22;2730;51.512;7.504;2023-06-14T10:34:07;27.60;1.00
5415;DHT22;2730;51.512;7.504;2023-06-14T10:36:34;26.80;1.00
5415;DHT22;2730;51.512;7.504;2023-06-14T10:39:05;27.10;1.00
5415;DHT22;2730;51.512;7.504;2023-06-14T10:41:35;28.10;1.00
5415;DHT22;2730;51.512;7.504;2023-06-14T10:44:37;27.80;1.00
5415;DHT22;2730;51.512;7.504;2023-06-14T10:47:07;27.40;1.00
5415;DHT22;2730;51.512;7.504;2023-06-14T10:49:40;27.00;1.00
5415;DHT22;2730;51.512;7.504;2023-06-14T10:52:08;26.90;1.00
5415;DHT22;2730;51.512;7.504;2023-06-14T10:54:56;27.00;1.00
5415;DHT22;2730;51.512;7.504;2023-06-14T10:57:22;27.00;1.00
5415;DHT22;2730;51.512;7.504;2023-06-14T10:59:50;26.70;1.00
5415;DHT22;2730;51.512;7.504;2023-06-14T11:02:45;26.10;1.00
5415;DHT22;2730;51.512;7.504;2023-06-14T11:05:15;25.80;1.00
5415;DHT22;2730;51.512;7.504;2023-06-14T11:07:52;25.20;1.00
5415;DHT22;2730;51.512;7.504;2023-06-14T11:10:30;24.60;1.00
5415;DHT22;2730;51.512;7.504;2023-06-14T11:13:01;24.40;1.00
5415;DHT22;2730;51.512;7.504;2023-06-14T11:15:30;24.10;1.00
5415;DHT22;2730;51.512;7.504;2023-06-14T11:17:59;23.90;1.00
5415;DHT22;2730;51.512;7.504;2023-06-14T11:20:29;24.00;1.00
5415;DHT22;2730;51.512;7.504;2023-06-14T11:22:56;24.00;1.00
5415;DHT22;2730;51.512;7.504;2023-06-14T11:25:23;24.00;1.00
5415;DHT22;2730;51.512;7.504;2023-06-14T11:27:50;24.20;1.00
5415;DHT22;2730;51.512;7.504;2023-06-14T11:30:17;23.80;1.00
5415;DHT22;2730;51.512;7.504;2023-06-14T11:32:47;23.90;1.00
5415;DHT22;2730;51.512;7.504;2023-06-14T11:35:15;24.00;1.00
5415;DHT22;2730;51.512;7.504;2023-06-14T11:37:43;23.80;1.00
5415;DHT22;2730;51.512;7.504;2023-06-14T11:40:11;23.90;1.00
5415;DHT22;2730;51.512;7.504;2023-06-14T11:42:40;23.90;1.00
5415;DHT22;2730;51.512;7.504;2023-06-14T11:45:09;23.80;1.00
5415;DHT22;2730;51.512;7.504;2023-06-14T11:47:37;23.70;1.00
5415;DHT22;2730;51.512;7.504;2023-06-14T11:50:07;23.80;1.00
5415;DHT22;2730;51.512;7.504;2023-06-14T11:52:36;24.00;1.00
5415;DHT22;2730;51.512;7.504;2023-06-14T11:55:04;24.20;1.00
5415;DHT22;2730;51.512;7.504;2023-06-14T11:57:34;24.20;1.00
5415;DHT22;2730;51.512;7.504;2023-06-14T12:00:03;23.90;1.00
5415;DHT22;2730;51.512;7.504;2023-06-14T12:02:32;23.50;1.00
5415;DHT22;2730;51.512;7.504;2023-06-14T12:05:05;23.60;1.00
5415;DHT22;2730;51.512;7.504;2023-06-14T12:07:36;23.60;1.00
5415;DHT22;2730;51.512;7.504;2023-06-14T12:10:06;23.80;1.00
5415;DHT22;2730;51.512;7.504;2023-06-14T12:12:36;23.90;1.00
5415;DHT22;2730;51.512;7.504;2023-06-14T12:15:04;24.10;1.00
5415;DHT22;2730;51.512;7.504;2023-06-14T12:17:32;24.10;1.00
5415;DHT22;2730;51.512;7.504;2023-06-14T12:20:07;24.00;1.00
5415;DHT22;2730;51.512;7.504;2023-06-14T12:22:36;23.80;1.00
5415;DHT22;2730;51.512;7.504;2023-06-14T12:25:03;23.70;1.00
5415;DHT22;2730;51.512;7.504;2023-06-14T12:27:31;23.80;1.00
5415;DHT22;2730;51.512;7.504;2023-06-14T12:29:59;23.90;1.00
5415;DHT22;2730;51.512;7.504;2023-06-14T12:32:26;24.00;1.00
5415;DHT22;2730;51.512;7.504;2023-06-14T12:34:53;24.10;1.00
5415;DHT22;2730;51.512;7.504;2023-06-14T12:37:21;24.20;1.00
5415;DHT22;2730;51.512;7.504;2023-06-14T12:39:49;24.10;1.00
5415;DHT22;2730;51.512;7.504;2023-06-14T12:42:16;23.90;1.00
5415;DHT22;2730;51.512;7.504;2023-06-14T12:44:43;24.10;1.00
5415;DHT22;2730;51.512;7.504;2023-06-14T12:47:10;24.30;1.00
5415;DHT22;2730;51.512;7.504;2023-06-14T12:49:39;24.30;1.00
5415;DHT22;2730;51.512;7.504;2023-06-14T12:52:07;24.30;1.00
5415;DHT22;2730;51.512;7.504;2023-06-14T12:54:35;24.30;1.00
5415;DHT22;2730;51.512;7.504;2023-06-14T12:57:05;24.10;1.00
5415;DHT22;2730;51.512;7.504;2023-06-14T12:59:32;23.90;1.00
5415;DHT22;2730;51.512;7.504;2023-06-14T13:02:10;23.90;1.00
5415;DHT22;2730;51.512;7.504;2023-06-14T13:04:37;23.90;1.00
5415;DHT22;2730;51.512;7.504;2023-06-14T13:07:04;23.90;1.00
5415;DHT22;2730;51.512;7.504;2023-06-14T13:09:32;23.80;1.00
5415;DHT22;2730;51.512;7.504;2023-06-14T13:12:00;23.80;1.00
5415;DHT22;2730;51.512;7.504;2023-06-14T13:14:27;23.90;1.00
5415;DHT22;2730;51.512;7.504;2023-06-14T13:16:54;24.00;1.00
5415;DHT22;2730;51.512;7.504;2023-06-14T13:19:21;24.10;1.00
5415;DHT22;2730;51.512;7.504;2023-06-14T13:21:48;24.10;1.00
5415;DHT22;2730;51.512;7.504;2023-06-14T13:24:15;24.00;1.00
5415;DHT22;2730;51.512;7.504;2023-06-14T13:26:43;23.80;1.00
5415;DHT22;2730;51.512;7.504;2023-06-14T13:29:11;23.90;1.00
5415;DHT22;2730;51.512;7.504;2023-06-14T13:31:38;23.90;1.00
5415;DHT22;2730;51.512;7.504;2023-06-14T13:34:06;23.80;1.00
5415;DHT22;2730;51.512;7.504;2023-06-14T13:36:33;23.70;1.00
5415;DHT22;2730;51.512;7.504;2023-06-14T13:39:00;23.70;1.00
5415;DHT22;2730;51.512;7.504;2023-06-14T13:41:28;23.90;1.00
5415;DHT22;2730;51.512;7.504;2023-06-14T13:43:57;24.00;1.00
5415;DHT22;2730;51.512;7.504;2023-06-14T13:46:27;24.20;1.00
5415;DHT22;2730;51.512;7.504;2023-06-14T13:48:54;24.30;1.00
5415;DHT22;2730;51.512;7.504;2023-06-14T13:51:21;24.10;1.00
5415;DHT22;2730;51.512;7.504;2023-06-14T13:53:48;23.90;1.00
5415;DHT22;2730;51.512;7.504;2023-06-14T13:56:16;23.90;1.00
5415;DHT22;2730;51.512;7.504;2023-06-14T13:58:44;23.90;1.00
5415;DHT22;2730;51.512;7.504;2023-06-14T14:01:11;23.90;1.00
5415;DHT22;2730;51.512;7.504;2023-06-14T14:03:40;23.80;1.00
5415;DHT22;2730;51.512;7.504;2023-06-14T14:06:07;24.10;1.00
5415;DHT22;2730;51.512;7.504;2023-06-14T14:08:35;24.30;1.00
5415;DHT22;2730;51.512;7.504;2023-06-14T14:11:02;24.10;1.00
5415;DHT22;2730;51.512;7.504;2023-06-14T14:13:29;24.20;1.00
5415;DHT22;2730;51.512;7.504;2023-06-14T14:15:56;24.30;1.00
5415;DHT22;2730;51.512;7.504;2023-06-14T14:18:23;24.20;1.00
5415;DHT22;2730;51.512;7.504;2023-06-14T14:20:51;24.20;1.00
5415;DHT22;2730;51.512;7.504;2023-06-14T14:23:18;24.10;1.00
5415;DHT22;2730;51.512;7.504;2023-06-14T14:25:45;24.20;1.00
5415;DHT22;2730;51.512;7.504;2023-06-14T14:28:12;24.10;1.00
5415;DHT22;2730;51.512;7.504;2023-06-14T14:30:41;24.00;1.00
5415;DHT22;2730;51.512;7.504;2023-06-14T14:33:08;24.00;1.00
5415;DHT22;2730;51.512;7.504;2023-06-14T14:35:41;24.00;1.00
5415;DHT22;2730;51.512;7.504;2023-06-14T14:38:09;24.00;1.00
5415;DHT22;2730;51.512;7.504;2023-06-14T14:40:36;24.10;1.00
5415;DHT22;2730;51.512;7.504;2023-06-14T14:43:03;24.10;1.00
5415;DHT22;2730;51.512;7.504;2023-06-14T14:45:30;24.20;1.00
5415;DHT22;2730;51.512;7.504;2023-06-14T14:47:57;24.30;1.00
5415;DHT22;2730;51.512;7.504;2023-06-14T14:50:25;24.30;1.00
5415;DHT22;2730;51.512;7.504;2023-06-14T14:52:52;24.30;1.00
5415;DHT22;2730;51.512;7.504;2023-06-14T14:55:20;24.20;1.00
5415;DHT22;2730;51.512;7.504;2023-06-14T14:57:47;24.30;1.00
5415;DHT22;2730;51.512;7.504;2023-06-14T15:00:14;24.20;1.00
5415;DHT22;2730;51.512;7.504;2023-06-14T15:02:41;24.30;1.00
5415;DHT22;2730;51.512;7.504;2023-06-14T15:05:08;24.40;1.00
5415;DHT22;2730;51.512;7.504;2023-06-14T15:07:35;24.40;1.00
5415;DHT22;2730;51.512;7.504;2023-06-14T15:10:02;24.50;1.00
5415;DHT22;2730;51.512;7.504;2023-06-14T15:12:31;24.50;1.00
5415;DHT22;2730;51.512;7.504;2023-06-14T15:14:58;24.50;1.00
5415;DHT22;2730;51.512;7.504;2023-06-14T15:17:25;24.40;1.00
5415;DHT22;2730;51.512;7.504;2023-06-14T15:19:52;24.30;1.00
5415;DHT22;2730;51.512;7.504;2023-06-14T15:22:19;24.30;1.00
5415;DHT22;2730;51.512;7.504;2023-06-14T15:24:46;24.30;1.00
5415;DHT22;2730;51.512;7.504;2023-06-14T15:27:13;24.30;1.00
5415;DHT22;2730;51.512;7.504;2023-06-14T15:29:41;24.20;1.00
5415;DHT22;2730;51.512;7.504;2023-06-14T15:32:08;24.10;1.00
5415;DHT22;2730;51.512;7.504;2023-06-14T15:34:36;24.00;1.00
5415;DHT22;2730;51.512;7.504;2023-06-14T15:37:05;24.10;1.00
5415;DHT22;2730;51.512;7.504;2023-06-14T15:39:32;24.10;1.00
5415;DHT22;2730;51.512;7.504;2023-06-14T15:41:59;24.10;1.00
5415;DHT22;2730;51.512;7.504;2023-06-14T15:44:26;24.10;1.00
5415;DHT22;2730;51.512;7.504;2023-06-14T15:46:54;23.90;1.00
5415;DHT22;2730;51.512;7.504;2023-06-14T15:49:21;23.90;1.00
5415;DHT22;2730;51.512;7.504;2023-06-14T15:51:48;23.80;1.00
5415;DHT22;2730;51.512;7.504;2023-06-14T15:54:15;23.80;1.00
5415;DHT22;2730;51.512;7.504;2023-06-14T15:56:42;23.80;1.00
5415;DHT22;2730;51.512;7.504;2023-06-14T15:59:08;23.90;1.00
5415;DHT22;2730;51.512;7.504;2023-06-14T16:01:35;24.00;1.00
5415;DHT22;2730;51.512;7.504;2023-06-14T16:04:04;24.10;1.00
5415;DHT22;2730;51.512;7.504;2023-06-14T16:06:31;24.00;1.00
5415;DHT22;2730;51.512;7.504;2023-06-14T16:08:58;23.90;1.00
5415;DHT22;2730;51.512;7.504;2023-06-14T16:11:25;23.90;1.00
5415;DHT22;2730;51.512;7.504;2023-06-14T16:13:52;23.90;1.00
5415;DHT22;2730;51.512;7.504;2023-06-14T16:16:21;23.90;1.00
5415;DHT22;2730;51.512;7.504;2023-06-14T16:18:48;23.90;1.00